sensor_id;sensor_type;location;lat;lon;timestamp;temperature;humidity
14531;DHT22;7352;50.866;4.366;2023-04-06T00:00:05;11.80;62.80
14531;DHT22;7352;50.866;4.366;2023-04-06T00:02:34;11.80;63.20
14531;DHT22;7352;50.866;4.366;2023-04-06T00:05:04;11.70;63.20
14531;DHT22;7352;50.866;4.366;2023-04-06T00:07:31;11.80;63.30
14531;DHT22;7352;50.866;4.366;2023-04-06T00:09:59;11.90;62.50
14531;DHT22;7352;50.866;4.366;2023-04-06T00:12:28;11.70;62.60
14531;DHT22;7352;50.866;4.366;2023-04-06T00:14:56;11.60;62.70
14531;DHT22;7352;50.866;4.366;2023-04-06T00:17:23;11.70;62.80
14531;DHT22;7352;50.866;4.366;2023-04-06T00:19:51;11.70;62.70
14531;DHT22;7352;50.866;4.366;2023-04-06T00:22:18;11.70;62.90
14531;DHT22;7352;50.866;4.366;2023-04-06T00:24:47;11.70;63.00
14531;DHT22;7352;50.866;4.366;2023-04-06T00:27:15;11.70;62.50
14531;DHT22;7352;50.866;4.366;2023-04-06T00:29:43;11.60;63.50
14531;DHT22;7352;50.866;4.366;2023-04-06T00:32:12;11.60;63.80
14531;DHT22;7352;50.866;4.366;2023-04-06T00:34:39;11.70;63.20
14531;DHT22;7352;50.866;4.366;2023-04-06T00:37:06;11.70;63.50
14531;DHT22;7352;50.866;4.366;2023-04-06T00:39:33;11.60;63.60
14531;DHT22;7352;50.866;4.366;2023-04-06T00:42:01;11.70;63.80
14531;DHT22;7352;50.866;4.366;2023-04-06T00:44:34;11.70;63.30
14531;DHT22;7352;50.866;4.366;2023-04-06T00:47:01;11.60;64.10
14531;DHT22;7352;50.866;4.366;2023-04-06T00:49:30;11.70;65.40
14531;DHT22;7352;50.866;4.366;2023-04-06T00:51:57;11.80;64.30
14531;DHT22;7352;50.866;4.366;2023-04-06T00:54:24;11.70;64.40
14531;DHT22;7352;50.866;4.366;2023-04-06T00:56:51;11.80;64.70
14531;DHT22;7352;50.866;4.366;2023-04-06T00:59:18;11.80;64.70
14531;DHT22;7352;50.866;4.366;2023-04-06T01:01:46;11.80;64.70
14531;DHT22;7352;50.866;4.366;2023-04-06T01:04:13;11.90;64.10
14531;DHT22;7352;50.866;4.366;2023-04-06T01:06:42;12.00;64.00
14531;DHT22;7352;50.866;4.366;2023-04-06T01:09:09;11.80;64.40
14531;DHT22;7352;50.866;4.366;2023-04-06T01:11:36;11.90;64.70
14531;DHT22;7352;50.866;4.366;2023-04-06T01:14:03;11.80;64.30
14531;DHT22;7352;50.866;4.366;2023-04-06T01:16:30;11.80;64.70
14531;DHT22;7352;50.866;4.366;2023-04-06T01:18:57;11.70;65.30
14531;DHT22;7352;50.866;4.366;2023-04-06T01:21:24;11.60;65.80
14531;DHT22;7352;50.866;4.366;2023-04-06T01:23:53;11.60;66.00
14531;DHT22;7352;50.866;4.366;2023-04-06T01:26:20;11.60;65.50
14531;DHT22;7352;50.866;4.366;2023-04-06T01:28:47;11.80;64.70
14531;DHT22;7352;50.866;4.366;2023-04-06T01:31:15;11.70;64.60
14531;DHT22;7352;50.866;4.366;2023-04-06T01:33:42;11.60;64.50
14531;DHT22;7352;50.866;4.366;2023-04-06T01:36:09;11.50;65.10
14531;DHT22;7352;50.866;4.366;2023-04-06T01:38:36;11.40;65.70
14531;DHT22;7352;50.866;4.366;2023-04-06T01:41:04;11.40;65.70
14531;DHT22;7352;50.866;4.366;2023-04-06T01:43:31;11.40;66.60
14531;DHT22;7352;50.866;4.366;2023-04-06T01:45:59;11.30;65.90
14531;DHT22;7352;50.866;4.366;2023-04-06T01:48:26;11.20;66.60
14531;DHT22;7352;50.866;4.366;2023-04-06T01:50:54;11.30;66.80
14531;DHT22;7352;50.866;4.366;2023-04-06T01:53:21;11.20;66.60
14531;DHT22;7352;50.866;4.366;2023-04-06T01:55:48;11.20;66.90
14531;DHT22;7352;50.866;4.366;2023-04-06T01:58:17;11.20;67.50
14531;DHT22;7352;50.866;4.366;2023-04-06T02:00:44;11.20;67.40
14531;DHT22;7352;50.866;4.366;2023-04-06T02:03:11;11.10;67.50
14531;DHT22;7352;50.866;4.366;2023-04-06T02:05:40;10.90;68.30
14531;DHT22;7352;50.866;4.366;2023-04-06T02:08:09;10.90;68.50
14531;DHT22;7352;50.866;4.366;2023-04-06T02:10:36;10.90;68.70
14531;DHT22;7352;50.866;4.366;2023-04-06T02:13:04;11.00;68.40
14531;DHT22;7352;50.866;4.366;2023-04-06T02:15:32;11.10;68.00
14531;DHT22;7352;50.866;4.366;2023-04-06T02:17:59;11.10;67.70
14531;DHT22;7352;50.866;4.366;2023-04-06T02:20:26;11.00;68.10
14531;DHT22;7352;50.866;4.366;2023-04-06T02:22:53;11.00;68.60
14531;DHT22;7352;50.866;4.366;2023-04-06T02:25:21;11.10;69.20
14531;DHT22;7352;50.866;4.366;2023-04-06T02:27:48;11.10;68.90
14531;DHT22;7352;50.866;4.366;2023-04-06T02:30:15;11.10;68.90
14531;DHT22;7352;50.866;4.366;2023-04-06T02:32:43;11.00;68.90
14531;DHT22;7352;50.866;4.366;2023-04-06T02:35:10;11.00;69.40
14531;DHT22;7352;50.866;4.366;2023-04-06T02:37:38;11.00;69.30
14531;DHT22;7352;50.866;4.366;2023-04-06T02:40:11;11.10;69.40
14531;DHT22;7352;50.866;4.366;2023-04-06T02:42:38;11.10;69.80
14531;DHT22;7352;50.866;4.366;2023-04-06T02:45:06;11.10;69.40
14531;DHT22;7352;50.866;4.366;2023-04-06T02:47:33;11.00;69.40
14531;DHT22;7352;50.866;4.366;2023-04-06T02:50:02;11.00;69.80
14531;DHT22;7352;50.866;4.366;2023-04-06T02:52:29;11.00;69.60
14531;DHT22;7352;50.866;4.366;2023-04-06T02:54:57;10.90;68.50
14531;DHT22;7352;50.866;4.366;2023-04-06T02:57:24;11.00;68.80
14531;DHT22;7352;50.866;4.366;2023-04-06T02:59:51;10.80;69.20
14531;DHT22;7352;50.866;4.366;2023-04-06T03:02:18;10.80;69.50
14531;DHT22;7352;50.866;4.366;2023-04-06T03:04:46;10.80;69.10
14531;DHT22;7352;50.866;4.366;2023-04-06T03:07:16;10.90;69.20
14531;DHT22;7352;50.866;4.366;2023-04-06T03:09:44;10.90;68.70
14531;DHT22;7352;50.866;4.366;2023-04-06T03:12:12;10.90;68.50
14531;DHT22;7352;50.866;4.366;2023-04-06T03:14:39;10.90;69.00
14531;DHT22;7352;50.866;4.366;2023-04-06T03:17:06;10.90;69.50
14531;DHT22;7352;50.866;4.366;2023-04-06T03:19:34;11.00;69.80
14531;DHT22;7352;50.866;4.366;2023-04-06T03:22:00;10.80;70.00
14531;DHT22;7352;50.866;4.366;2023-04-06T03:24:29;10.70;69.60
14531;DHT22;7352;50.866;4.366;2023-04-06T03:26:56;10.70;70.00
14531;DHT22;7352;50.866;4.366;2023-04-06T03:29:23;10.60;70.00
14531;DHT22;7352;50.866;4.366;2023-04-06T03:31:50;10.60;70.30
14531;DHT22;7352;50.866;4.366;2023-04-06T03:34:17;10.60;70.20
14531;DHT22;7352;50.866;4.366;2023-04-06T03:36:44;10.70;70.30
14531;DHT22;7352;50.866;4.366;2023-04-06T03:39:11;10.70;70.30
14531;DHT22;7352;50.866;4.366;2023-04-06T03:41:42;10.70;70.50
14531;DHT22;7352;50.866;4.366;2023-04-06T03:44:10;10.70;70.80
14531;DHT22;7352;50.866;4.366;2023-04-06T03:46:37;10.80;70.80
14531;DHT22;7352;50.866;4.366;2023-04-06T03:49:04;10.70;71.00
14531;DHT22;7352;50.866;4.366;2023-04-06T03:51:31;10.80;70.50
14531;DHT22;7352;50.866;4.366;2023-04-06T03:53:58;10.60;70.70
14531;DHT22;7352;50.866;4.366;2023-04-06T03:56:25;10.70;70.50
14531;DHT22;7352;50.866;4.366;2023-04-06T03:58:53;10.70;71.10
14531;DHT22;7352;50.866;4.366;2023-04-06T04:01:20;10.70;71.10
14531;DHT22;7352;50.866;4.366;2023-04-06T04:03:47;10.70;70.40
14531;DHT22;7352;50.866;4.366;2023-04-06T04:06:14;10.80;71.10
14531;DHT22;7352;50.866;4.366;2023-04-06T04:08:41;10.70;70.10
14531;DHT22;7352;50.866;4.366;2023-04-06T04:11:09;10.70;70.60
14531;DHT22;7352;50.866;4.366;2023-04-06T04:13:36;10.70;71.20
14531;DHT22;7352;50.866;4.366;2023-04-06T04:16:04;10.60;71.60
14531;DHT22;7352;50.866;4.366;2023-04-06T04:18:31;10.70;71.50
14531;DHT22;7352;50.866;4.366;2023-04-06T04:20:58;10.80;71.20
14531;DHT22;7352;50.866;4.366;2023-04-06T04:23:28;10.90;71.10
14531;DHT22;7352;50.866;4.366;2023-04-06T04:25:56;10.80;71.80
14531;DHT22;7352;50.866;4.366;2023-04-06T04:28:25;10.80;71.60
14531;DHT22;7352;50.866;4.366;2023-04-06T04:30:52;10.90;72.20
14531;DHT22;7352;50.866;4.366;2023-04-06T04:33:24;10.80;72.20
14531;DHT22;7352;50.866;4.366;2023-04-06T04:35:51;10.70;72.30
14531;DHT22;7352;50.866;4.366;2023-04-06T04:38:18;10.80;72.70
14531;DHT22;7352;50.866;4.366;2023-04-06T04:40:45;10.70;72.50
14531;DHT22;7352;50.866;4.366;2023-04-06T04:43:12;10.70;73.00
14531;DHT22;7352;50.866;4.366;2023-04-06T04:45:40;10.70;74.40
14531;DHT22;7352;50.866;4.366;2023-04-06T04:48:08;10.60;73.60
14531;DHT22;7352;50.866;4.366;2023-04-06T04:50:37;10.40;74.80
14531;DHT22;7352;50.866;4.366;2023-04-06T04:53:04;10.50;74.80
14531;DHT22;7352;50.866;4.366;2023-04-06T04:55:31;10.50;75.20
14531;DHT22;7352;50.866;4.366;2023-04-06T04:57:59;10.40;75.80
14531;DHT22;7352;50.866;4.366;2023-04-06T05:00:26;10.50;75.90
14531;DHT22;7352;50.866;4.366;2023-04-06T05:02:54;10.50;76.10
14531;DHT22;7352;50.866;4.366;2023-04-06T05:05:24;10.60;76.60
14531;DHT22;7352;50.866;4.366;2023-04-06T05:07:54;10.50;77.60
14531;DHT22;7352;50.866;4.366;2023-04-06T05:10:21;10.50;77.40
14531;DHT22;7352;50.866;4.366;2023-04-06T05:12:52;10.40;78.00
14531;DHT22;7352;50.866;4.366;2023-04-06T05:15:19;10.50;78.00
14531;DHT22;7352;50.866;4.366;2023-04-06T05:17:47;10.40;78.20
14531;DHT22;7352;50.866;4.366;2023-04-06T05:20:14;10.40;79.10
14531;DHT22;7352;50.866;4.366;2023-04-06T05:22:41;10.40;79.30
14531;DHT22;7352;50.866;4.366;2023-04-06T05:25:14;10.40;79.50
14531;DHT22;7352;50.866;4.366;2023-04-06T05:27:41;10.40;79.80
14531;DHT22;7352;50.866;4.366;2023-04-06T05:30:10;10.40;80.40
14531;DHT22;7352;50.866;4.366;2023-04-06T05:32:37;10.40;80.30
14531;DHT22;7352;50.866;4.366;2023-04-06T05:35:05;10.40;80.40
14531;DHT22;7352;50.866;4.366;2023-04-06T05:37:32;10.60;80.40
14531;DHT22;7352;50.866;4.366;2023-04-06T05:40:00;10.60;80.60
14531;DHT22;7352;50.866;4.366;2023-04-06T05:42:36;10.60;80.60
14531;DHT22;7352;50.866;4.366;2023-04-06T05:45:04;10.50;81.20
14531;DHT22;7352;50.866;4.366;2023-04-06T05:47:31;10.50;81.80
14531;DHT22;7352;50.866;4.366;2023-04-06T05:49:59;10.50;82.30
14531;DHT22;7352;50.866;4.366;2023-04-06T05:52:26;10.50;82.20
14531;DHT22;7352;50.866;4.366;2023-04-06T05:54:55;10.60;81.90
14531;DHT22;7352;50.866;4.366;2023-04-06T05:57:22;10.50;83.00
14531;DHT22;7352;50.866;4.366;2023-04-06T05:59:51;10.50;83.40
14531;DHT22;7352;50.866;4.366;2023-04-06T06:02:18;10.50;83.40
14531;DHT22;7352;50.866;4.366;2023-04-06T06:04:45;10.60;83.60
14531;DHT22;7352;50.866;4.366;2023-04-06T06:07:13;10.60;83.50
14531;DHT22;7352;50.866;4.366;2023-04-06T06:09:41;10.50;84.00
14531;DHT22;7352;50.866;4.366;2023-04-06T06:12:09;10.60;85.10
14531;DHT22;7352;50.866;4.366;2023-04-06T06:14:36;10.50;84.70
14531;DHT22;7352;50.866;4.366;2023-04-06T06:17:04;10.60;85.10
14531;DHT22;7352;50.866;4.366;2023-04-06T06:19:31;10.40;86.00
14531;DHT22;7352;50.866;4.366;2023-04-06T06:21:59;10.50;86.50
14531;DHT22;7352;50.866;4.366;2023-04-06T06:24:29;10.60;86.90
14531;DHT22;7352;50.866;4.366;2023-04-06T06:26:56;10.60;88.10
14531;DHT22;7352;50.866;4.366;2023-04-06T06:29:24;10.60;89.90
14531;DHT22;7352;50.866;4.366;2023-04-06T06:31:51;10.40;90.20
14531;DHT22;7352;50.866;4.366;2023-04-06T06:34:19;10.60;91.10
14531;DHT22;7352;50.866;4.366;2023-04-06T06:36:46;10.60;92.30
14531;DHT22;7352;50.866;4.366;2023-04-06T06:39:13;10.70;94.20
14531;DHT22;7352;50.866;4.366;2023-04-06T06:41:41;10.60;94.30
14531;DHT22;7352;50.866;4.366;2023-04-06T06:44:08;10.60;95.00
14531;DHT22;7352;50.866;4.366;2023-04-06T06:46:36;10.70;98.40
14531;DHT22;7352;50.866;4.366;2023-04-06T06:49:03;10.70;97.90
14531;DHT22;7352;50.866;4.366;2023-04-06T06:51:31;10.60;99.40
14531;DHT22;7352;50.866;4.366;2023-04-06T06:53:58;10.50;99.90
14531;DHT22;7352;50.866;4.366;2023-04-06T06:56:26;10.60;99.90
14531;DHT22;7352;50.866;4.366;2023-04-06T06:58:53;10.70;99.90
14531;DHT22;7352;50.866;4.366;2023-04-06T07:01:22;10.60;99.90
14531;DHT22;7352;50.866;4.366;2023-04-06T07:03:49;10.60;99.90
14531;DHT22;7352;50.866;4.366;2023-04-06T07:06:18;10.60;99.90
14531;DHT22;7352;50.866;4.366;2023-04-06T07:08:51;10.70;99.90
14531;DHT22;7352;50.866;4.366;2023-04-06T07:11:18;10.70;99.90
14531;DHT22;7352;50.866;4.366;2023-04-06T07:13:45;10.60;99.90
14531;DHT22;7352;50.866;4.366;2023-04-06T07:16:12;10.80;99.90
14531;DHT22;7352;50.866;4.366;2023-04-06T07:18:39;10.90;99.90
14531;DHT22;7352;50.866;4.366;2023-04-06T07:21:06;10.80;99.90
14531;DHT22;7352;50.866;4.366;2023-04-06T07:23:33;10.80;99.90
14531;DHT22;7352;50.866;4.366;2023-04-06T07:26:02;11.00;99.90
14531;DHT22;7352;50.866;4.366;2023-04-06T07:28:29;11.00;99.90
14531;DHT22;7352;50.866;4.366;2023-04-06T07:30:56;11.00;99.90
14531;DHT22;7352;50.866;4.366;2023-04-06T07:33:23;11.00;99.90
14531;DHT22;7352;50.866;4.366;2023-04-06T07:35:51;11.10;99.90
14531;DHT22;7352;50.866;4.366;2023-04-06T07:38:18;10.90;99.90
14531;DHT22;7352;50.866;4.366;2023-04-06T07:40:45;10.90;99.90
14531;DHT22;7352;50.866;4.366;2023-04-06T07:43:13;10.90;99.90
14531;DHT22;7352;50.866;4.366;2023-04-06T07:45:41;10.90;99.90
14531;DHT22;7352;50.866;4.366;2023-04-06T07:48:08;11.00;99.90
14531;DHT22;7352;50.866;4.366;2023-04-06T07:50:35;11.10;99.90
14531;DHT22;7352;50.866;4.366;2023-04-06T07:53:02;11.10;99.90
14531;DHT22;7352;50.866;4.366;2023-04-06T07:55:29;11.00;99.90
14531;DHT22;7352;50.866;4.366;2023-04-06T07:57:56;10.90;99.90
14531;DHT22;7352;50.866;4.366;2023-04-06T08:00:25;10.80;99.90
14531;DHT22;7352;50.866;4.366;2023-04-06T08:02:52;10.80;99.90
14531;DHT22;7352;50.866;4.366;2023-04-06T08:05:19;11.00;99.90
14531;DHT22;7352;50.866;4.366;2023-04-06T08:07:46;11.10;99.90
14531;DHT22;7352;50.866;4.366;2023-04-06T08:10:13;11.20;99.90
14531;DHT22;7352;50.866;4.366;2023-04-06T08:12:40;11.00;99.90
14531;DHT22;7352;50.866;4.366;2023-04-06T08:15:07;11.00;99.90
14531;DHT22;7352;50.866;4.366;2023-04-06T08:17:36;10.80;99.90
14531;DHT22;7352;50.866;4.366;2023-04-06T08:20:03;10.70;99.90
14531;DHT22;7352;50.866;4.366;2023-04-06T08:22:30;10.70;99.90
14531;DHT22;7352;50.866;4.366;2023-04-06T08:24:57;10.80;99.90
14531;DHT22;7352;50.866;4.366;2023-04-06T08:27:24;10.60;99.90
14531;DHT22;7352;50.866;4.366;2023-04-06T08:29:51;10.70;99.90
14531;DHT22;7352;50.866;4.366;2023-04-06T08:32:18;10.70;99.90
14531;DHT22;7352;50.866;4.366;2023-04-06T08:34:47;10.60;99.90
14531;DHT22;7352;50.866;4.366;2023-04-06T08:37:14;10.50;99.90
14531;DHT22;7352;50.866;4.366;2023-04-06T08:39:41;10.40;99.90
14531;DHT22;7352;50.866;4.366;2023-04-06T08:42:12;10.60;99.90
14531;DHT22;7352;50.866;4.366;2023-04-06T08:44:43;10.70;99.90
14531;DHT22;7352;50.866;4.366;2023-04-06T08:47:11;10.60;99.90
14531;DHT22;7352;50.866;4.366;2023-04-06T08:49:38;10.40;99.90
14531;DHT22;7352;50.866;4.366;2023-04-06T08:52:07;10.40;99.90
14531;DHT22;7352;50.866;4.366;2023-04-06T08:54:34;10.50;99.90
14531;DHT22;7352;50.866;4.366;2023-04-06T08:57:02;10.50;99.90
14531;DHT22;7352;50.866;4.366;2023-04-06T08:59:31;10.40;99.90
14531;DHT22;7352;50.866;4.366;2023-04-06T09:01:59;10.40;99.90
14531;DHT22;7352;50.866;4.366;2023-04-06T09:04:28;10.50;99.90
14531;DHT22;7352;50.866;4.366;2023-04-06T09:06:55;10.70;99.90
14531;DHT22;7352;50.866;4.366;2023-04-06T09:09:24;10.80;99.90
14531;DHT22;7352;50.866;4.366;2023-04-06T09:11:51;10.90;99.90
14531;DHT22;7352;50.866;4.366;2023-04-06T09:14:33;10.80;99.90
14531;DHT22;7352;50.866;4.366;2023-04-06T09:17:01;10.90;99.90
14531;DHT22;7352;50.866;4.366;2023-04-06T09:19:28;11.00;99.90
14531;DHT22;7352;50.866;4.366;2023-04-06T09:22:02;11.10;99.90
14531;DHT22;7352;50.866;4.366;2023-04-06T09:24:42;11.10;99.90
14531;DHT22;7352;50.866;4.366;2023-04-06T09:27:09;11.30;99.90
14531;DHT22;7352;50.866;4.366;2023-04-06T09:29:36;11.30;99.90
14531;DHT22;7352;50.866;4.366;2023-04-06T09:32:04;11.10;99.90
14531;DHT22;7352;50.866;4.366;2023-04-06T09:34:33;11.00;99.90
14531;DHT22;7352;50.866;4.366;2023-04-06T09:37:12;10.90;99.90
14531;DHT22;7352;50.866;4.366;2023-04-06T09:39:41;10.90;99.90
14531;DHT22;7352;50.866;4.366;2023-04-06T09:42:08;11.10;99.90
14531;DHT22;7352;50.866;4.366;2023-04-06T09:44:36;11.20;99.90
14531;DHT22;7352;50.866;4.366;2023-04-06T09:47:06;11.20;99.90
14531;DHT22;7352;50.866;4.366;2023-04-06T09:49:33;11.20;99.90
14531;DHT22;7352;50.866;4.366;2023-04-06T09:52:03;11.20;99.90
14531;DHT22;7352;50.866;4.366;2023-04-06T09:54:35;11.00;99.90
14531;DHT22;7352;50.866;4.366;2023-04-06T09:57:09;10.80;99.90
14531;DHT22;7352;50.866;4.366;2023-04-06T09:59:43;10.70;99.90
14531;DHT22;7352;50.866;4.366;2023-04-06T10:02:18;10.80;99.90
14531;DHT22;7352;50.866;4.366;2023-04-06T10:04:55;10.90;99.90
14531;DHT22;7352;50.866;4.366;2023-04-06T10:07:26;10.70;99.90
14531;DHT22;7352;50.866;4.366;2023-04-06T10:09:53;10.80;99.90
14531;DHT22;7352;50.866;4.366;2023-04-06T10:12:23;10.60;99.90
14531;DHT22;7352;50.866;4.366;2023-04-06T10:14:51;10.70;99.90
14531;DHT22;7352;50.866;4.366;2023-04-06T10:17:18;10.70;99.90
14531;DHT22;7352;50.866;4.366;2023-04-06T10:19:52;10.80;99.90
14531;DHT22;7352;50.866;4.366;2023-04-06T10:22:25;10.90;99.90
14531;DHT22;7352;50.866;4.366;2023-04-06T10:24:54;10.90;99.90
14531;DHT22;7352;50.866;4.366;2023-04-06T10:27:32;10.80;99.90
14531;DHT22;7352;50.866;4.366;2023-04-06T10:30:06;10.80;99.90
14531;DHT22;7352;50.866;4.366;2023-04-06T10:32:37;10.80;99.90
14531;DHT22;7352;50.866;4.366;2023-04-06T10:35:08;10.80;99.90
14531;DHT22;7352;50.866;4.366;2023-04-06T10:37:51;10.80;99.90
14531;DHT22;7352;50.866;4.366;2023-04-06T10:40:24;10.60;99.90
14531;DHT22;7352;50.866;4.366;2023-04-06T10:43:08;10.70;99.90
14531;DHT22;7352;50.866;4.366;2023-04-06T10:45:36;10.90;99.90
14531;DHT22;7352;50.866;4.366;2023-04-06T10:48:15;11.00;99.90
14531;DHT22;7352;50.866;4.366;2023-04-06T10:50:44;11.00;99.90
14531;DHT22;7352;50.866;4.366;2023-04-06T10:53:21;10.80;99.90
14531;DHT22;7352;50.866;4.366;2023-04-06T10:55:50;10.80;99.90
14531;DHT22;7352;50.866;4.366;2023-04-06T10:58:19;10.80;99.90
14531;DHT22;7352;50.866;4.366;2023-04-06T11:00:47;10.80;99.90
14531;DHT22;7352;50.866;4.366;2023-04-06T11:03:14;10.80;99.90
14531;DHT22;7352;50.866;4.366;2023-04-06T11:05:44;10.80;99.90
14531;DHT22;7352;50.866;4.366;2023-04-06T11:08:22;11.00;99.90
14531;DHT22;7352;50.866;4.366;2023-04-06T11:10:49;11.20;99.90
14531;DHT22;7352;50.866;4.366;2023-04-06T11:13:20;11.20;99.90
14531;DHT22;7352;50.866;4.366;2023-04-06T11:15:48;11.10;99.90
14531;DHT22;7352;50.866;4.366;2023-04-06T11:18:19;11.10;99.90
14531;DHT22;7352;50.866;4.366;2023-04-06T11:20:48;11.20;99.90
14531;DHT22;7352;50.866;4.366;2023-04-06T11:23:22;11.20;99.90
14531;DHT22;7352;50.866;4.366;2023-04-06T11:25:51;11.30;99.90
14531;DHT22;7352;50.866;4.366;2023-04-06T11:28:19;11.50;99.90
14531;DHT22;7352;50.866;4.366;2023-04-06T11:30:47;11.50;99.90
14531;DHT22;7352;50.866;4.366;2023-04-06T11:33:20;11.50;99.90
14531;DHT22;7352;50.866;4.366;2023-04-06T11:35:47;11.50;99.90
14531;DHT22;7352;50.866;4.366;2023-04-06T11:38:15;11.50;99.90
14531;DHT22;7352;50.866;4.366;2023-04-06T11:40:43;11.30;99.90
14531;DHT22;7352;50.866;4.366;2023-04-06T11:43:11;11.40;99.90
14531;DHT22;7352;50.866;4.366;2023-04-06T11:45:43;11.40;99.90
14531;DHT22;7352;50.866;4.366;2023-04-06T11:48:18;11.50;99.90
14531;DHT22;7352;50.866;4.366;2023-04-06T11:50:46;11.60;99.90
14531;DHT22;7352;50.866;4.366;2023-04-06T11:53:14;11.50;99.90
14531;DHT22;7352;50.866;4.366;2023-04-06T11:55:41;11.60;99.90
14531;DHT22;7352;50.866;4.366;2023-04-06T11:58:10;11.50;99.90
14531;DHT22;7352;50.866;4.366;2023-04-06T12:00:37;11.30;99.90
14531;DHT22;7352;50.866;4.366;2023-04-06T12:03:11;11.20;99.90
14531;DHT22;7352;50.866;4.366;2023-04-06T12:05:38;11.30;99.90
14531;DHT22;7352;50.866;4.366;2023-04-06T12:08:05;11.10;99.90
14531;DHT22;7352;50.866;4.366;2023-04-06T12:10:32;11.10;99.90
14531;DHT22;7352;50.866;4.366;2023-04-06T12:13:00;11.20;99.90
14531;DHT22;7352;50.866;4.366;2023-04-06T12:15:26;11.30;99.90
14531;DHT22;7352;50.866;4.366;2023-04-06T12:17:53;11.30;99.90
14531;DHT22;7352;50.866;4.366;2023-04-06T12:20:22;11.50;99.90
14531;DHT22;7352;50.866;4.366;2023-04-06T12:22:49;11.50;99.90
14531;DHT22;7352;50.866;4.366;2023-04-06T12:25:16;11.50;99.90
14531;DHT22;7352;50.866;4.366;2023-04-06T12:27:44;11.40;99.90
14531;DHT22;7352;50.866;4.366;2023-04-06T12:30:12;11.40;99.90
14531;DHT22;7352;50.866;4.366;2023-04-06T12:32:39;11.40;99.90
14531;DHT22;7352;50.866;4.366;2023-04-06T12:35:06;11.40;99.90
14531;DHT22;7352;50.866;4.366;2023-04-06T12:37:37;11.20;99.90
14531;DHT22;7352;50.866;4.366;2023-04-06T12:40:06;11.20;99.90
14531;DHT22;7352;50.866;4.366;2023-04-06T12:42:38;11.30;99.90
14531;DHT22;7352;50.866;4.366;2023-04-06T12:45:07;11.40;99.90
14531;DHT22;7352;50.866;4.366;2023-04-06T12:47:34;11.50;99.90
14531;DHT22;7352;50.866;4.366;2023-04-06T12:50:04;11.40;99.90
14531;DHT22;7352;50.866;4.366;2023-04-06T12:52:32;11.20;99.90
14531;DHT22;7352;50.866;4.366;2023-04-06T12:55:02;11.10;99.90
14531;DHT22;7352;50.866;4.366;2023-04-06T12:57:30;11.00;99.90
14531;DHT22;7352;50.866;4.366;2023-04-06T12:59:58;10.90;99.90
14531;DHT22;7352;50.866;4.366;2023-04-06T13:02:25;10.90;99.90
14531;DHT22;7352;50.866;4.366;2023-04-06T13:04:52;10.90;99.90
14531;DHT22;7352;50.866;4.366;2023-04-06T13:07:21;10.90;99.90
14531;DHT22;7352;50.866;4.366;2023-04-06T13:09:48;11.00;99.90
14531;DHT22;7352;50.866;4.366;2023-04-06T13:12:18;10.90;99.90
14531;DHT22;7352;50.866;4.366;2023-04-06T13:14:47;10.90;99.90
14531;DHT22;7352;50.866;4.366;2023-04-06T13:17:17;10.80;99.90
14531;DHT22;7352;50.866;4.366;2023-04-06T13:19:44;10.70;99.90
14531;DHT22;7352;50.866;4.366;2023-04-06T13:22:12;10.80;99.90
14531;DHT22;7352;50.866;4.366;2023-04-06T13:24:41;10.80;99.90
14531;DHT22;7352;50.866;4.366;2023-04-06T13:27:09;10.90;99.90
14531;DHT22;7352;50.866;4.366;2023-04-06T13:29:38;11.00;99.90
14531;DHT22;7352;50.866;4.366;2023-04-06T13:32:05;11.00;99.90
14531;DHT22;7352;50.866;4.366;2023-04-06T13:34:35;11.10;99.90
14531;DHT22;7352;50.866;4.366;2023-04-06T13:37:02;11.20;99.90
14531;DHT22;7352;50.866;4.366;2023-04-06T13:39:29;11.00;99.90
14531;DHT22;7352;50.866;4.366;2023-04-06T13:41:56;11.10;99.90
14531;DHT22;7352;50.866;4.366;2023-04-06T13:44:25;11.10;99.90
14531;DHT22;7352;50.866;4.366;2023-04-06T13:46:54;11.20;99.90
14531;DHT22;7352;50.866;4.366;2023-04-06T13:49:21;11.20;99.90
14531;DHT22;7352;50.866;4.366;2023-04-06T13:51:54;11.20;99.90
14531;DHT22;7352;50.866;4.366;2023-04-06T13:54:27;11.20;99.90
14531;DHT22;7352;50.866;4.366;2023-04-06T13:57:00;11.20;99.90
14531;DHT22;7352;50.866;4.366;2023-04-06T13:59:35;11.30;99.90
14531;DHT22;7352;50.866;4.366;2023-04-06T14:02:06;11.30;99.90
14531;DHT22;7352;50.866;4.366;2023-04-06T14:04:37;11.30;99.90
14531;DHT22;7352;50.866;4.366;2023-04-06T14:07:09;11.40;99.90
14531;DHT22;7352;50.866;4.366;2023-04-06T14:09:40;11.50;99.90
14531;DHT22;7352;50.866;4.366;2023-04-06T14:12:08;11.40;99.90
14531;DHT22;7352;50.866;4.366;2023-04-06T14:14:35;11.50;99.90
14531;DHT22;7352;50.866;4.366;2023-04-06T14:17:12;11.60;99.90
14531;DHT22;7352;50.866;4.366;2023-04-06T14:19:40;11.50;99.90
14531;DHT22;7352;50.866;4.366;2023-04-06T14:22:10;11.40;99.90
14531;DHT22;7352;50.866;4.366;2023-04-06T14:24:37;11.60;99.90
14531;DHT22;7352;50.866;4.366;2023-04-06T14:27:07;11.40;99.90
14531;DHT22;7352;50.866;4.366;2023-04-06T14:29:49;11.30;99.90
14531;DHT22;7352;50.866;4.366;2023-04-06T14:32:47;11.40;99.90
14531;DHT22;7352;50.866;4.366;2023-04-06T14:35:54;11.30;99.90
14531;DHT22;7352;50.866;4.366;2023-04-06T14:38:35;11.20;99.90
14531;DHT22;7352;50.866;4.366;2023-04-06T14:41:06;11.20;99.90
14531;DHT22;7352;50.866;4.366;2023-04-06T14:43:41;11.30;99.90
14531;DHT22;7352;50.866;4.366;2023-04-06T14:46:20;11.20;99.90
14531;DHT22;7352;50.866;4.366;2023-04-06T14:49:03;11.30;99.90
14531;DHT22;7352;50.866;4.366;2023-04-06T14:51:40;11.40;99.90
14531;DHT22;7352;50.866;4.366;2023-04-06T14:54:22;11.30;99.90
14531;DHT22;7352;50.866;4.366;2023-04-06T14:56:49;11.50;99.90
14531;DHT22;7352;50.866;4.366;2023-04-06T14:59:20;11.70;99.90
14531;DHT22;7352;50.866;4.366;2023-04-06T15:01:50;11.80;99.90
14531;DHT22;7352;50.866;4.366;2023-04-06T15:04:19;11.90;99.90
14531;DHT22;7352;50.866;4.366;2023-04-06T15:07:01;12.10;99.90
14531;DHT22;7352;50.866;4.366;2023-04-06T15:09:37;12.20;99.90
14531;DHT22;7352;50.866;4.366;2023-04-06T15:12:19;12.20;99.90
14531;DHT22;7352;50.866;4.366;2023-04-06T15:14:56;12.10;99.90
14531;DHT22;7352;50.866;4.366;2023-04-06T15:17:26;12.20;99.90
14531;DHT22;7352;50.866;4.366;2023-04-06T15:19:55;12.20;99.90
14531;DHT22;7352;50.866;4.366;2023-04-06T15:22:40;12.20;99.90
14531;DHT22;7352;50.866;4.366;2023-04-06T15:25:34;12.30;99.90
14531;DHT22;7352;50.866;4.366;2023-04-06T15:28:02;12.40;99.90
14531;DHT22;7352;50.866;4.366;2023-04-06T15:30:29;12.50;99.90
14531;DHT22;7352;50.866;4.366;2023-04-06T15:33:00;12.60;99.90
14531;DHT22;7352;50.866;4.366;2023-04-06T15:35:31;12.60;99.90
14531;DHT22;7352;50.866;4.366;2023-04-06T15:37:59;12.80;99.90
14531;DHT22;7352;50.866;4.366;2023-04-06T15:40:28;12.70;99.90
14531;DHT22;7352;50.866;4.366;2023-04-06T15:43:26;12.70;99.90
14531;DHT22;7352;50.866;4.366;2023-04-06T15:46:06;12.70;99.90
14531;DHT22;7352;50.866;4.366;2023-04-06T15:48:33;12.70;99.90
14531;DHT22;7352;50.866;4.366;2023-04-06T15:51:04;12.60;99.90
14531;DHT22;7352;50.866;4.366;2023-04-06T15:53:31;12.50;99.90
14531;DHT22;7352;50.866;4.366;2023-04-06T15:56:13;12.50;99.90